sensor_id;sensor_type;location;lat;lon;timestamp;temperature;humidity
1307;DHT22;646;48.696;9.114;2022-12-08T00:01:37;0.80;99.90
1307;DHT22;646;48.696;9.114;2022-12-08T00:04:04;0.60;99.90
1307;DHT22;646;48.696;9.114;2022-12-08T00:06:36;0.80;99.90
1307;DHT22;646;48.696;9.114;2022-12-08T00:09:33;0.80;99.90
1307;DHT22;646;48.696;9.114;2022-12-08T00:12:02;0.30;99.90
1307;DHT22;646;48.696;9.114;2022-12-08T00:14:37;0.20;99.90
1307;DHT22;646;48.696;9.114;2022-12-08T00:17:04;0.30;99.90
1307;DHT22;646;48.696;9.114;2022-12-08T00:19:31;-0.60;99.90
1307;DHT22;646;48.696;9.114;2022-12-08T00:21:56;0.00;99.90
1307;DHT22;646;48.696;9.114;2022-12-08T00:24:24;-0.10;99.90
1307;DHT22;646;48.696;9.114;2022-12-08T00:26:50;-0.30;99.90
1307;DHT22;646;48.696;9.114;2022-12-08T00:29:15;-0.20;99.90
1307;DHT22;646;48.696;9.114;2022-12-08T00:31:41;-0.10;99.90
1307;DHT22;646;48.696;9.114;2022-12-08T00:34:06;-0.10;99.90
1307;DHT22;646;48.696;9.114;2022-12-08T00:36:32;-0.40;99.90
1307;DHT22;646;48.696;9.114;2022-12-08T00:38:58;-0.50;99.90
1307;DHT22;646;48.696;9.114;2022-12-08T00:41:25;-0.30;99.90
1307;DHT22;646;48.696;9.114;2022-12-08T00:44:12;-0.50;99.90
1307;DHT22;646;48.696;9.114;2022-12-08T00:46:38;-0.30;99.90
1307;DHT22;646;48.696;9.114;2022-12-08T00:49:05;-1.00;99.90
1307;DHT22;646;48.696;9.114;2022-12-08T00:51:30;-1.10;99.90
1307;DHT22;646;48.696;9.114;2022-12-08T00:53:56;-0.60;99.90
1307;DHT22;646;48.696;9.114;2022-12-08T00:56:22;-0.60;99.90
1307;DHT22;646;48.696;9.114;2022-12-08T00:58:47;-0.40;99.90
1307;DHT22;646;48.696;9.114;2022-12-08T01:01:13;-0.80;99.90
1307;DHT22;646;48.696;9.114;2022-12-08T01:03:40;-0.70;99.90
1307;DHT22;646;48.696;9.114;2022-12-08T01:06:06;-0.60;99.90
1307;DHT22;646;48.696;9.114;2022-12-08T01:08:32;-0.90;99.90
1307;DHT22;646;48.696;9.114;2022-12-08T01:11:05;-0.80;99.90
1307;DHT22;646;48.696;9.114;2022-12-08T01:13:32;-1.40;99.90
1307;DHT22;646;48.696;9.114;2022-12-08T01:15:57;-0.90;99.90
1307;DHT22;646;48.696;9.114;2022-12-08T01:18:23;-1.00;99.90
1307;DHT22;646;48.696;9.114;2022-12-08T01:20:48;-0.90;99.90
1307;DHT22;646;48.696;9.114;2022-12-08T01:23:14;-0.80;99.90
1307;DHT22;646;48.696;9.114;2022-12-08T01:25:39;-0.80;99.90
1307;DHT22;646;48.696;9.114;2022-12-08T01:28:05;-1.00;99.90
1307;DHT22;646;48.696;9.114;2022-12-08T01:30:30;-0.80;99.90
1307;DHT22;646;48.696;9.114;2022-12-08T01:32:56;-1.00;99.90
1307;DHT22;646;48.696;9.114;2022-12-08T01:35:21;-0.80;99.90
1307;DHT22;646;48.696;9.114;2022-12-08T01:37:48;-1.00;99.90
1307;DHT22;646;48.696;9.114;2022-12-08T01:40:15;-0.80;99.90
1307;DHT22;646;48.696;9.114;2022-12-08T01:42:40;-0.90;99.90
1307;DHT22;646;48.696;9.114;2022-12-08T01:45:13;-0.90;99.90
1307;DHT22;646;48.696;9.114;2022-12-08T01:47:45;-1.00;99.90
1307;DHT22;646;48.696;9.114;2022-12-08T01:50:12;-1.00;99.90
1307;DHT22;646;48.696;9.114;2022-12-08T01:52:47;-0.90;99.90
1307;DHT22;646;48.696;9.114;2022-12-08T01:55:18;-1.60;99.90
1307;DHT22;646;48.696;9.114;2022-12-08T01:57:59;-1.10;99.90
1307;DHT22;646;48.696;9.114;2022-12-08T02:00:26;-1.10;99.90
1307;DHT22;646;48.696;9.114;2022-12-08T02:03:05;-1.10;99.90
1307;DHT22;646;48.696;9.114;2022-12-08T02:05:34;-1.20;99.90
1307;DHT22;646;48.696;9.114;2022-12-08T02:08:02;-1.20;99.90
1307;DHT22;646;48.696;9.114;2022-12-08T02:10:31;-1.00;99.90
1307;DHT22;646;48.696;9.114;2022-12-08T02:12:58;-1.70;99.90
1307;DHT22;646;48.696;9.114;2022-12-08T02:15:41;-1.20;99.90
1307;DHT22;646;48.696;9.114;2022-12-08T02:24:33;-1.20;99.90
1307;DHT22;646;48.696;9.114;2022-12-08T02:27:25;-1.20;99.90
1307;DHT22;646;48.696;9.114;2022-12-08T02:35:29;-1.40;99.90
1307;DHT22;646;48.696;9.114;2022-12-08T02:43:59;-1.30;99.90
1307;DHT22;646;48.696;9.114;2022-12-08T02:46:37;-1.40;99.90
1307;DHT22;646;48.696;9.114;2022-12-08T02:49:04;-1.60;99.90
1307;DHT22;646;48.696;9.114;2022-12-08T02:51:30;-1.60;99.90
1307;DHT22;646;48.696;9.114;2022-12-08T02:53:56;-1.60;99.90
1307;DHT22;646;48.696;9.114;2022-12-08T02:56:45;-1.50;99.90
1307;DHT22;646;48.696;9.114;2022-12-08T03:07:39;-1.60;99.90
1307;DHT22;646;48.696;9.114;2022-12-08T03:10:18;-1.60;99.90
1307;DHT22;646;48.696;9.114;2022-12-08T03:13:05;-1.60;99.90
1307;DHT22;646;48.696;9.114;2022-12-08T03:15:34;-1.60;99.90
1307;DHT22;646;48.696;9.114;2022-12-08T03:18:02;-1.80;99.90
1307;DHT22;646;48.696;9.114;2022-12-08T03:20:30;-1.80;99.90
1307;DHT22;646;48.696;9.114;2022-12-08T03:22:58;-1.60;99.90
1307;DHT22;646;48.696;9.114;2022-12-08T03:25:26;-1.80;99.90
1307;DHT22;646;48.696;9.114;2022-12-08T03:27:52;-1.50;99.90
1307;DHT22;646;48.696;9.114;2022-12-08T03:30:18;-1.70;99.90
1307;DHT22;646;48.696;9.114;2022-12-08T03:32:51;-1.80;99.90
1307;DHT22;646;48.696;9.114;2022-12-08T03:35:22;-1.70;99.90
1307;DHT22;646;48.696;9.114;2022-12-08T03:37:49;-1.70;99.90
1307;DHT22;646;48.696;9.114;2022-12-08T03:40:18;-1.90;99.90
1307;DHT22;646;48.696;9.114;2022-12-08T03:42:44;-1.50;99.90
1307;DHT22;646;48.696;9.114;2022-12-08T03:45:10;-1.60;99.90
1307;DHT22;646;48.696;9.114;2022-12-08T03:47:36;-1.70;99.90
1307;DHT22;646;48.696;9.114;2022-12-08T03:50:02;-1.90;99.90
1307;DHT22;646;48.696;9.114;2022-12-08T03:52:28;-1.90;99.90
1307;DHT22;646;48.696;9.114;2022-12-08T03:54:53;-1.70;99.90
1307;DHT22;646;48.696;9.114;2022-12-08T03:57:19;-1.70;99.90
1307;DHT22;646;48.696;9.114;2022-12-08T03:59:46;-1.80;99.90
1307;DHT22;646;48.696;9.114;2022-12-08T04:02:11;-1.80;99.90
1307;DHT22;646;48.696;9.114;2022-12-08T04:04:37;-1.90;99.90
1307;DHT22;646;48.696;9.114;2022-12-08T04:07:02;-1.90;99.90
1307;DHT22;646;48.696;9.114;2022-12-08T04:09:28;-2.00;99.90
1307;DHT22;646;48.696;9.114;2022-12-08T04:11:53;-2.10;99.90
1307;DHT22;646;48.696;9.114;2022-12-08T04:14:19;-2.00;99.90
1307;DHT22;646;48.696;9.114;2022-12-08T04:16:44;-2.10;99.90
1307;DHT22;646;48.696;9.114;2022-12-08T04:19:10;-1.80;99.90
1307;DHT22;646;48.696;9.114;2022-12-08T04:21:35;-2.20;99.90
1307;DHT22;646;48.696;9.114;2022-12-08T04:24:01;-1.80;99.90
1307;DHT22;646;48.696;9.114;2022-12-08T04:26:27;-2.00;99.90
1307;DHT22;646;48.696;9.114;2022-12-08T04:28:52;-1.90;99.90
1307;DHT22;646;48.696;9.114;2022-12-08T04:31:18;-2.10;99.90
1307;DHT22;646;48.696;9.114;2022-12-08T04:33:43;-1.90;99.90
1307;DHT22;646;48.696;9.114;2022-12-08T04:36:09;-2.20;99.90
1307;DHT22;646;48.696;9.114;2022-12-08T04:38:35;-2.00;99.90
1307;DHT22;646;48.696;9.114;2022-12-08T04:41:01;-1.90;99.90
1307;DHT22;646;48.696;9.114;2022-12-08T04:43:26;-2.10;99.90
1307;DHT22;646;48.696;9.114;2022-12-08T04:45:52;-2.10;99.90
1307;DHT22;646;48.696;9.114;2022-12-08T04:48:18;-2.30;99.90
1307;DHT22;646;48.696;9.114;2022-12-08T04:50:44;-2.30;99.90
1307;DHT22;646;48.696;9.114;2022-12-08T04:53:11;-2.30;99.90
1307;DHT22;646;48.696;9.114;2022-12-08T04:55:38;-2.20;99.90
1307;DHT22;646;48.696;9.114;2022-12-08T04:58:04;-2.40;99.90
1307;DHT22;646;48.696;9.114;2022-12-08T05:00:30;-2.10;99.90
1307;DHT22;646;48.696;9.114;2022-12-08T05:02:55;-2.20;99.90
1307;DHT22;646;48.696;9.114;2022-12-08T05:05:21;-2.10;99.90
1307;DHT22;646;48.696;9.114;2022-12-08T05:07:47;-2.30;99.90
1307;DHT22;646;48.696;9.114;2022-12-08T05:10:12;-2.30;99.90
1307;DHT22;646;48.696;9.114;2022-12-08T05:12:38;-2.40;99.90
1307;DHT22;646;48.696;9.114;2022-12-08T05:15:03;-2.20;99.90
1307;DHT22;646;48.696;9.114;2022-12-08T05:17:29;-2.40;99.90
1307;DHT22;646;48.696;9.114;2022-12-08T05:19:55;-2.20;99.90
1307;DHT22;646;48.696;9.114;2022-12-08T05:22:20;-2.20;99.90
1307;DHT22;646;48.696;9.114;2022-12-08T05:24:46;-2.20;99.90
1307;DHT22;646;48.696;9.114;2022-12-08T05:27:11;-2.40;99.90
1307;DHT22;646;48.696;9.114;2022-12-08T05:29:37;-2.50;99.90
1307;DHT22;646;48.696;9.114;2022-12-08T05:32:02;-2.60;99.90
1307;DHT22;646;48.696;9.114;2022-12-08T05:34:28;-2.60;99.90
1307;DHT22;646;48.696;9.114;2022-12-08T05:36:53;-2.40;99.90
1307;DHT22;646;48.696;9.114;2022-12-08T05:39:19;-2.30;99.90
1307;DHT22;646;48.696;9.114;2022-12-08T05:41:44;-2.70;99.90
1307;DHT22;646;48.696;9.114;2022-12-08T05:44:10;-2.30;99.90
1307;DHT22;646;48.696;9.114;2022-12-08T05:46:35;-2.30;99.90
1307;DHT22;646;48.696;9.114;2022-12-08T05:49:02;-2.70;99.90
1307;DHT22;646;48.696;9.114;2022-12-08T05:51:28;-2.50;99.90
1307;DHT22;646;48.696;9.114;2022-12-08T05:53:54;-2.70;99.90
1307;DHT22;646;48.696;9.114;2022-12-08T05:56:20;-2.40;99.90
1307;DHT22;646;48.696;9.114;2022-12-08T05:58:46;-3.20;99.90
1307;DHT22;646;48.696;9.114;2022-12-08T06:01:28;-3.20;99.90
1307;DHT22;646;48.696;9.114;2022-12-08T06:03:54;-2.70;99.90
1307;DHT22;646;48.696;9.114;2022-12-08T06:06:21;-2.40;99.90
1307;DHT22;646;48.696;9.114;2022-12-08T06:08:47;-2.30;99.90
1307;DHT22;646;48.696;9.114;2022-12-08T06:11:21;-2.70;99.90
1307;DHT22;646;48.696;9.114;2022-12-08T06:13:48;-2.50;99.90
1307;DHT22;646;48.696;9.114;2022-12-08T06:16:13;-2.50;99.90
1307;DHT22;646;48.696;9.114;2022-12-08T06:18:39;-3.00;99.90
1307;DHT22;646;48.696;9.114;2022-12-08T06:21:06;-2.80;99.90
1307;DHT22;646;48.696;9.114;2022-12-08T06:23:32;-2.60;99.90
1307;DHT22;646;48.696;9.114;2022-12-08T06:26:06;-2.70;99.90
1307;DHT22;646;48.696;9.114;2022-12-08T06:28:33;-2.50;99.90
1307;DHT22;646;48.696;9.114;2022-12-08T06:30:59;-2.70;99.90
1307;DHT22;646;48.696;9.114;2022-12-08T06:33:25;-3.10;99.90
1307;DHT22;646;48.696;9.114;2022-12-08T06:35:51;-2.80;99.90
1307;DHT22;646;48.696;9.114;2022-12-08T06:38:17;-2.80;99.90
1307;DHT22;646;48.696;9.114;2022-12-08T06:40:43;-2.70;99.90
1307;DHT22;646;48.696;9.114;2022-12-08T06:43:09;-2.70;99.90
1307;DHT22;646;48.696;9.114;2022-12-08T06:45:34;-3.40;99.90
1307;DHT22;646;48.696;9.114;2022-12-08T06:48:01;-2.50;99.90
1307;DHT22;646;48.696;9.114;2022-12-08T06:50:27;-2.90;99.90
1307;DHT22;646;48.696;9.114;2022-12-08T06:52:52;-2.90;99.90
1307;DHT22;646;48.696;9.114;2022-12-08T06:55:18;-2.90;99.90
1307;DHT22;646;48.696;9.114;2022-12-08T06:57:44;-2.80;99.90
1307;DHT22;646;48.696;9.114;2022-12-08T07:00:10;-2.60;99.90
1307;DHT22;646;48.696;9.114;2022-12-08T07:02:35;-2.70;99.90
1307;DHT22;646;48.696;9.114;2022-12-08T07:05:01;-2.90;99.90
1307;DHT22;646;48.696;9.114;2022-12-08T07:07:26;-2.60;99.90
1307;DHT22;646;48.696;9.114;2022-12-08T07:09:52;-2.60;99.90
1307;DHT22;646;48.696;9.114;2022-12-08T07:12:17;-2.50;99.90
1307;DHT22;646;48.696;9.114;2022-12-08T07:14:43;-2.60;99.90
1307;DHT22;646;48.696;9.114;2022-12-08T07:17:08;-2.80;99.90
1307;DHT22;646;48.696;9.114;2022-12-08T07:19:34;-2.70;99.90
1307;DHT22;646;48.696;9.114;2022-12-08T07:21:59;-2.80;99.90
1307;DHT22;646;48.696;9.114;2022-12-08T07:24:25;-2.70;99.90
1307;DHT22;646;48.696;9.114;2022-12-08T07:26:51;-2.40;99.90
1307;DHT22;646;48.696;9.114;2022-12-08T07:29:16;-2.70;99.90
1307;DHT22;646;48.696;9.114;2022-12-08T07:31:42;-2.90;99.90
1307;DHT22;646;48.696;9.114;2022-12-08T07:34:10;-2.80;99.90
1307;DHT22;646;48.696;9.114;2022-12-08T07:36:36;-2.60;99.90
1307;DHT22;646;48.696;9.114;2022-12-08T07:39:02;-2.70;99.90
1307;DHT22;646;48.696;9.114;2022-12-08T07:41:27;-2.70;99.90
1307;DHT22;646;48.696;9.114;2022-12-08T07:43:54;-2.60;99.90
1307;DHT22;646;48.696;9.114;2022-12-08T07:46:22;-3.00;99.90
1307;DHT22;646;48.696;9.114;2022-12-08T07:48:48;-2.50;99.90
1307;DHT22;646;48.696;9.114;2022-12-08T07:51:14;-2.50;99.90
1307;DHT22;646;48.696;9.114;2022-12-08T07:53:41;-2.60;99.90
1307;DHT22;646;48.696;9.114;2022-12-08T07:56:08;-2.30;99.90
1307;DHT22;646;48.696;9.114;2022-12-08T07:58:34;-2.50;99.90
1307;DHT22;646;48.696;9.114;2022-12-08T08:01:00;-2.20;99.90
1307;DHT22;646;48.696;9.114;2022-12-08T08:03:25;-2.40;99.90
1307;DHT22;646;48.696;9.114;2022-12-08T08:05:51;-2.30;99.90
1307;DHT22;646;48.696;9.114;2022-12-08T08:08:17;-2.30;99.90
1307;DHT22;646;48.696;9.114;2022-12-08T08:10:43;-2.20;99.90
1307;DHT22;646;48.696;9.114;2022-12-08T08:13:09;-2.30;99.90
1307;DHT22;646;48.696;9.114;2022-12-08T08:15:35;-2.00;99.90
1307;DHT22;646;48.696;9.114;2022-12-08T08:18:01;-2.10;99.90
1307;DHT22;646;48.696;9.114;2022-12-08T08:20:26;-2.20;99.90
1307;DHT22;646;48.696;9.114;2022-12-08T08:22:52;-2.40;99.90
1307;DHT22;646;48.696;9.114;2022-12-08T08:25:18;-1.70;99.90
1307;DHT22;646;48.696;9.114;2022-12-08T08:27:44;-1.90;99.90
1307;DHT22;646;48.696;9.114;2022-12-08T08:30:12;-1.90;99.90
1307;DHT22;646;48.696;9.114;2022-12-08T08:32:38;-1.70;99.90
1307;DHT22;646;48.696;9.114;2022-12-08T08:35:04;-1.60;99.90
1307;DHT22;646;48.696;9.114;2022-12-08T08:37:30;-1.70;99.90
1307;DHT22;646;48.696;9.114;2022-12-08T08:39:56;-1.40;99.90
1307;DHT22;646;48.696;9.114;2022-12-08T08:42:22;-1.50;99.90
1307;DHT22;646;48.696;9.114;2022-12-08T08:44:47;-1.10;99.90
1307;DHT22;646;48.696;9.114;2022-12-08T08:47:13;-1.40;99.90
1307;DHT22;646;48.696;9.114;2022-12-08T08:49:38;-1.10;99.90
1307;DHT22;646;48.696;9.114;2022-12-08T08:52:04;0.10;99.90
1307;DHT22;646;48.696;9.114;2022-12-08T08:54:31;1.20;99.90
1307;DHT22;646;48.696;9.114;2022-12-08T08:56:58;3.00;99.90
1307;DHT22;646;48.696;9.114;2022-12-08T08:59:24;4.30;99.90
1307;DHT22;646;48.696;9.114;2022-12-08T09:01:49;5.40;99.90
1307;DHT22;646;48.696;9.114;2022-12-08T09:04:15;6.00;99.90
1307;DHT22;646;48.696;9.114;2022-12-08T09:06:41;6.80;99.90
1307;DHT22;646;48.696;9.114;2022-12-08T09:09:08;8.00;99.90
1307;DHT22;646;48.696;9.114;2022-12-08T09:11:33;9.10;99.90
1307;DHT22;646;48.696;9.114;2022-12-08T09:13:59;10.30;99.90
1307;DHT22;646;48.696;9.114;2022-12-08T09:16:25;11.70;99.90
1307;DHT22;646;48.696;9.114;2022-12-08T09:18:50;13.10;99.90
1307;DHT22;646;48.696;9.114;2022-12-08T09:21:18;14.00;99.90
1307;DHT22;646;48.696;9.114;2022-12-08T09:23:47;15.20;99.90
1307;DHT22;646;48.696;9.114;2022-12-08T09:26:13;16.80;98.10
1307;DHT22;646;48.696;9.114;2022-12-08T09:28:38;17.60;91.50
1307;DHT22;646;48.696;9.114;2022-12-08T09:31:04;18.50;86.50
1307;DHT22;646;48.696;9.114;2022-12-08T09:33:29;19.30;79.00
1307;DHT22;646;48.696;9.114;2022-12-08T09:35:55;19.80;70.90
1307;DHT22;646;48.696;9.114;2022-12-08T09:38:20;20.90;66.70
1307;DHT22;646;48.696;9.114;2022-12-08T09:40:51;20.80;59.00
1307;DHT22;646;48.696;9.114;2022-12-08T09:46:13;21.70;49.30
1307;DHT22;646;48.696;9.114;2022-12-08T09:48:44;22.00;46.50
1307;DHT22;646;48.696;9.114;2022-12-08T09:51:13;22.30;40.90
1307;DHT22;646;48.696;9.114;2022-12-08T09:53:46;21.70;40.50
1307;DHT22;646;48.696;9.114;2022-12-08T09:56:16;22.30;41.00
1307;DHT22;646;48.696;9.114;2022-12-08T10:01:34;22.70;35.80
1307;DHT22;646;48.696;9.114;2022-12-08T10:04:03;22.20;34.10
1307;DHT22;646;48.696;9.114;2022-12-08T10:07:08;22.80;33.70
1307;DHT22;646;48.696;9.114;2022-12-08T10:09:44;22.80;32.00
1307;DHT22;646;48.696;9.114;2022-12-08T10:12:21;23.20;31.80
1307;DHT22;646;48.696;9.114;2022-12-08T10:17:47;23.30;30.40
1307;DHT22;646;48.696;9.114;2022-12-08T10:20:21;23.40;29.20
1307;DHT22;646;48.696;9.114;2022-12-08T10:22:58;23.60;29.00
1307;DHT22;646;48.696;9.114;2022-12-08T10:25:37;24.00;29.10
1307;DHT22;646;48.696;9.114;2022-12-08T10:28:05;24.50;29.50
1307;DHT22;646;48.696;9.114;2022-12-08T10:30:32;24.40;28.60
1307;DHT22;646;48.696;9.114;2022-12-08T10:32:57;24.40;28.60
1307;DHT22;646;48.696;9.114;2022-12-08T10:35:23;25.10;27.90
1307;DHT22;646;48.696;9.114;2022-12-08T10:38:00;25.30;27.40
1307;DHT22;646;48.696;9.114;2022-12-08T10:40:28;25.50;27.50
1307;DHT22;646;48.696;9.114;2022-12-08T10:42:58;25.20;26.70
1307;DHT22;646;48.696;9.114;2022-12-08T10:48:03;25.60;26.80
1307;DHT22;646;48.696;9.114;2022-12-08T10:50:42;25.60;27.10
1307;DHT22;646;48.696;9.114;2022-12-08T10:55:49;25.50;26.80
1307;DHT22;646;48.696;9.114;2022-12-08T11:00:54;25.80;26.70
1307;DHT22;646;48.696;9.114;2022-12-08T11:06:22;25.70;25.60
1307;DHT22;646;48.696;9.114;2022-12-08T11:08:53;25.20;26.10
1307;DHT22;646;48.696;9.114;2022-12-08T11:11:20;25.50;26.00
1307;DHT22;646;48.696;9.114;2022-12-08T11:13:49;25.90;25.30
1307;DHT22;646;48.696;9.114;2022-12-08T11:16:15;26.20;25.20
1307;DHT22;646;48.696;9.114;2022-12-08T11:18:44;25.60;24.90
1307;DHT22;646;48.696;9.114;2022-12-08T11:21:14;24.70;24.80
1307;DHT22;646;48.696;9.114;2022-12-08T11:23:42;25.00;25.70
1307;DHT22;646;48.696;9.114;2022-12-08T11:26:29;25.10;26.40
1307;DHT22;646;48.696;9.114;2022-12-08T11:28:56;24.90;26.00
1307;DHT22;646;48.696;9.114;2022-12-08T11:31:28;25.80;26.00
1307;DHT22;646;48.696;9.114;2022-12-08T11:33:55;26.10;25.00
1307;DHT22;646;48.696;9.114;2022-12-08T11:36:22;25.90;25.00
1307;DHT22;646;48.696;9.114;2022-12-08T11:38:50;25.90;24.10
1307;DHT22;646;48.696;9.114;2022-12-08T11:41:21;25.40;23.80
1307;DHT22;646;48.696;9.114;2022-12-08T11:46:35;24.90;25.00
1307;DHT22;646;48.696;9.114;2022-12-08T11:49:08;24.10;24.80
1307;DHT22;646;48.696;9.114;2022-12-08T11:51:53;23.70;25.90
1307;DHT22;646;48.696;9.114;2022-12-08T11:54:28;24.60;26.40
1307;DHT22;646;48.696;9.114;2022-12-08T11:56:57;24.90;25.80
1307;DHT22;646;48.696;9.114;2022-12-08T11:59:32;25.30;25.90
1307;DHT22;646;48.696;9.114;2022-12-08T12:02:01;25.40;24.70
1307;DHT22;646;48.696;9.114;2022-12-08T12:04:32;25.60;24.70
1307;DHT22;646;48.696;9.114;2022-12-08T12:22:54;22.20;25.30
1307;DHT22;646;48.696;9.114;2022-12-08T12:25:23;21.30;27.00
1307;DHT22;646;48.696;9.114;2022-12-08T12:27:50;20.70;27.80
1307;DHT22;646;48.696;9.114;2022-12-08T12:30:25;20.00;28.80
1307;DHT22;646;48.696;9.114;2022-12-08T12:32:57;20.50;29.10
1307;DHT22;646;48.696;9.114;2022-12-08T12:35:29;21.60;29.20
1307;DHT22;646;48.696;9.114;2022-12-08T12:38:06;22.50;27.90
1307;DHT22;646;48.696;9.114;2022-12-08T12:40:59;23.30;27.80
1307;DHT22;646;48.696;9.114;2022-12-08T12:43:31;23.70;27.00
1307;DHT22;646;48.696;9.114;2022-12-08T12:48:49;23.80;26.20
1307;DHT22;646;48.696;9.114;2022-12-08T12:51:43;23.90;26.40
1307;DHT22;646;48.696;9.114;2022-12-08T12:54:23;24.60;26.00
1307;DHT22;646;48.696;9.114;2022-12-08T12:57:18;24.90;24.90
1307;DHT22;646;48.696;9.114;2022-12-08T13:00:06;24.80;24.40
1307;DHT22;646;48.696;9.114;2022-12-08T13:05:29;25.70;24.70
1307;DHT22;646;48.696;9.114;2022-12-08T13:07:55;25.40;24.00
1307;DHT22;646;48.696;9.114;2022-12-08T13:10:37;24.80;23.70
1307;DHT22;646;48.696;9.114;2022-12-08T13:15:40;21.40;25.60
1307;DHT22;646;48.696;9.114;2022-12-08T13:21:04;22.10;28.10
1307;DHT22;646;48.696;9.114;2022-12-08T13:23:44;22.80;27.60
1307;DHT22;646;48.696;9.114;2022-12-08T13:26:25;23.10;27.00
1307;DHT22;646;48.696;9.114;2022-12-08T13:31:37;22.60;26.40
1307;DHT22;646;48.696;9.114;2022-12-08T13:34:12;23.60;26.90
1307;DHT22;646;48.696;9.114;2022-12-08T13:36:46;23.70;25.90
1307;DHT22;646;48.696;9.114;2022-12-08T13:39:20;23.20;25.30
1307;DHT22;646;48.696;9.114;2022-12-08T13:41:55;22.60;25.50
1307;DHT22;646;48.696;9.114;2022-12-08T13:44:25;20.60;25.70
1307;DHT22;646;48.696;9.114;2022-12-08T13:46:54;19.10;27.00
1307;DHT22;646;48.696;9.114;2022-12-08T13:49:35;17.30;28.30
1307;DHT22;646;48.696;9.114;2022-12-08T13:52:02;16.50;30.60
1307;DHT22;646;48.696;9.114;2022-12-08T13:54:34;15.00;32.30
1307;DHT22;646;48.696;9.114;2022-12-08T13:57:05;13.50;34.20
1307;DHT22;646;48.696;9.114;2022-12-08T13:59:33;12.60;35.10
1307;DHT22;646;48.696;9.114;2022-12-08T14:02:17;12.10;37.20
1307;DHT22;646;48.696;9.114;2022-12-08T14:04:44;11.10;39.30
1307;DHT22;646;48.696;9.114;2022-12-08T14:07:11;10.30;40.00
1307;DHT22;646;48.696;9.114;2022-12-08T14:09:39;10.10;41.70
1307;DHT22;646;48.696;9.114;2022-12-08T14:12:38;9.40;43.70
1307;DHT22;646;48.696;9.114;2022-12-08T14:14:59;9.50;45.60
1307;DHT22;646;48.696;9.114;2022-12-08T14:17:25;8.90;46.30
1307;DHT22;646;48.696;9.114;2022-12-08T14:20:00;8.00;46.30
1307;DHT22;646;48.696;9.114;2022-12-08T14:22:34;8.30;47.90
1307;DHT22;646;48.696;9.114;2022-12-08T14:25:00;8.10;48.90
1307;DHT22;646;48.696;9.114;2022-12-08T14:27:26;7.80;49.30
1307;DHT22;646;48.696;9.114;2022-12-08T14:29:59;7.30;50.00
1307;DHT22;646;48.696;9.114;2022-12-08T14:32:29;7.40;50.80
1307;DHT22;646;48.696;9.114;2022-12-08T14:35:17;7.00;51.60
1307;DHT22;646;48.696;9.114;2022-12-08T14:37:46;6.70;53.20
1307;DHT22;646;48.696;9.114;2022-12-08T14:40:42;6.30;53.10
1307;DHT22;646;48.696;9.114;2022-12-08T14:45:58;6.10;54.40
1307;DHT22;646;48.696;9.114;2022-12-08T14:48:40;5.70;55.80
1307;DHT22;646;48.696;9.114;2022-12-08T14:51:23;5.60;55.80
1307;DHT22;646;48.696;9.114;2022-12-08T14:56:37;5.10;56.90
1307;DHT22;646;48.696;9.114;2022-12-08T14:59:06;4.90;57.80
1307;DHT22;646;48.696;9.114;2022-12-08T15:01:36;4.90;57.50
1307;DHT22;646;48.696;9.114;2022-12-08T15:09:39;4.80;59.50
1307;DHT22;646;48.696;9.114;2022-12-08T15:14:41;4.60;60.60
1307;DHT22;646;48.696;9.114;2022-12-08T15:17:27;4.50;62.10
1307;DHT22;646;48.696;9.114;2022-12-08T15:19:57;4.50;61.50
1307;DHT22;646;48.696;9.114;2022-12-08T15:22:23;4.60;62.60
1307;DHT22;646;48.696;9.114;2022-12-08T15:24:51;4.20;62.50
1307;DHT22;646;48.696;9.114;2022-12-08T15:27:18;4.10;63.40
1307;DHT22;646;48.696;9.114;2022-12-08T15:29:48;4.10;62.80
1307;DHT22;646;48.696;9.114;2022-12-08T15:32:19;3.60;63.10
1307;DHT22;646;48.696;9.114;2022-12-08T15:34:45;4.20;64.00
1307;DHT22;646;48.696;9.114;2022-12-08T15:37:22;4.00;64.10
1307;DHT22;646;48.696;9.114;2022-12-08T15:39:51;3.90;64.70
1307;DHT22;646;48.696;9.114;2022-12-08T15:42:17;4.20;66.50
1307;DHT22;646;48.696;9.114;2022-12-08T15:44:43;4.20;65.70
1307;DHT22;646;48.696;9.114;2022-12-08T15:47:17;3.80;65.80
1307;DHT22;646;48.696;9.114;2022-12-08T15:49:44;3.90;67.10
1307;DHT22;646;48.696;9.114;2022-12-08T15:52:15;4.00;66.80
1307;DHT22;646;48.696;9.114;2022-12-08T15:54:41;3.90;67.00
1307;DHT22;646;48.696;9.114;2022-12-08T15:59:41;3.90;68.00
1307;DHT22;646;48.696;9.114;2022-12-08T16:02:10;3.60;68.70
1307;DHT22;646;48.696;9.114;2022-12-08T16:04:36;3.20;68.80
1307;DHT22;646;48.696;9.114;2022-12-08T16:07:01;3.80;68.80
1307;DHT22;646;48.696;9.114;2022-12-08T16:09:30;3.80;70.50
1307;DHT22;646;48.696;9.114;2022-12-08T16:11:56;3.10;69.80
1307;DHT22;646;48.696;9.114;2022-12-08T16:14:41;3.80;69.90
1307;DHT22;646;48.696;9.114;2022-12-08T16:17:17;3.80;70.60
1307;DHT22;646;48.696;9.114;2022-12-08T16:19:43;3.10;70.90
1307;DHT22;646;48.696;9.114;2022-12-08T16:22:32;3.10;70.20
1307;DHT22;646;48.696;9.114;2022-12-08T16:24:58;3.70;72.40
1307;DHT22;646;48.696;9.114;2022-12-08T16:27:27;3.80;72.20
1307;DHT22;646;48.696;9.114;2022-12-08T16:29:54;3.60;72.30
1307;DHT22;646;48.696;9.114;2022-12-08T16:32:20;3.10;72.40
1307;DHT22;646;48.696;9.114;2022-12-08T16:34:46;3.60;74.50
1307;DHT22;646;48.696;9.114;2022-12-08T16:37:20;3.70;74.30
1307;DHT22;646;48.696;9.114;2022-12-08T16:39:47;3.60;75.50
1307;DHT22;646;48.696;9.114;2022-12-08T16:42:27;3.70;75.10
1307;DHT22;646;48.696;9.114;2022-12-08T16:45:12;3.70;76.30
1307;DHT22;646;48.696;9.114;2022-12-08T16:47:57;3.60;76.00
1307;DHT22;646;48.696;9.114;2022-12-08T16:52:49;3.70;76.80
1307;DHT22;646;48.696;9.114;2022-12-08T16:55:19;3.60;78.00
1307;DHT22;646;48.696;9.114;2022-12-08T16:57:45;3.60;77.40
1307;DHT22;646;48.696;9.114;2022-12-08T17:00:14;3.50;77.60
1307;DHT22;646;48.696;9.114;2022-12-08T17:02:41;3.50;77.60
1307;DHT22;646;48.696;9.114;2022-12-08T17:05:07;3.40;78.10
1307;DHT22;646;48.696;9.114;2022-12-08T17:07:34;3.50;78.80
1307;DHT22;646;48.696;9.114;2022-12-08T17:10:02;3.40;79.60
1307;DHT22;646;48.696;9.114;2022-12-08T17:12:28;3.50;80.40
1307;DHT22;646;48.696;9.114;2022-12-08T17:14:54;3.40;81.10
1307;DHT22;646;48.696;9.114;2022-12-08T17:17:20;3.60;81.70
1307;DHT22;646;48.696;9.114;2022-12-08T17:19:46;2.70;81.40
1307;DHT22;646;48.696;9.114;2022-12-08T17:22:11;3.50;82.90
1307;DHT22;646;48.696;9.114;2022-12-08T17:24:37;3.40;84.00
1307;DHT22;646;48.696;9.114;2022-12-08T17:27:03;3.40;84.20
1307;DHT22;646;48.696;9.114;2022-12-08T17:29:30;3.30;84.90
1307;DHT22;646;48.696;9.114;2022-12-08T17:31:56;3.10;84.90
1307;DHT22;646;48.696;9.114;2022-12-08T17:34:22;2.80;85.80
1307;DHT22;646;48.696;9.114;2022-12-08T17:36:48;3.30;86.40
1307;DHT22;646;48.696;9.114;2022-12-08T17:39:13;3.30;86.70
1307;DHT22;646;48.696;9.114;2022-12-08T17:41:39;3.20;87.10
1307;DHT22;646;48.696;9.114;2022-12-08T17:44:13;2.50;86.90
1307;DHT22;646;48.696;9.114;2022-12-08T17:46:40;3.10;89.50
1307;DHT22;646;48.696;9.114;2022-12-08T17:49:19;2.40;89.70
1307;DHT22;646;48.696;9.114;2022-12-08T17:51:47;3.00;90.50
1307;DHT22;646;48.696;9.114;2022-12-08T17:54:14;3.10;90.60
1307;DHT22;646;48.696;9.114;2022-12-08T17:56:40;3.20;90.10
1307;DHT22;646;48.696;9.114;2022-12-08T17:59:06;3.10;90.10
1307;DHT22;646;48.696;9.114;2022-12-08T18:01:31;3.00;90.40
1307;DHT22;646;48.696;9.114;2022-12-08T18:04:02;2.80;90.50
1307;DHT22;646;48.696;9.114;2022-12-08T18:06:29;3.10;91.50
1307;DHT22;646;48.696;9.114;2022-12-08T18:08:55;2.80;91.20
1307;DHT22;646;48.696;9.114;2022-12-08T18:11:21;2.50;91.90